Time;durP1;ratioP1;P1;durP2;ratioP2;P2;SDS_P1;SDS_P2;PMS_P1;PMS_P2;Temp;Humidity;BMP_temperature;BMP_pressure;BME280_temperature;BME280_humidity;BME280_pressure;Samples;Min_cycle;Max_cycle;Signal;HPM_P1;HPM_P2
2021/08/29 00:02:12;;;;;;;6.00;3.50;;;;;;;27.57;42.63;100293.58;111805;1228;61024;-87
2021/08/29 00:04:39;;;;;;;5.70;3.60;;;;;;;27.57;42.48;100297.58;112031;1225;62090;-84
2021/08/29 00:07:10;;;;;;;5.60;3.50;;;;;;;27.57;42.62;100296.98;112463;1211;61004;-88
2021/08/29 00:10:14;;;;;;;;;;;;;;;;;;;;;
2021/08/29 00:12:56;;;;;;;;;;;;;;;;;;;;;
2021/08/29 00:15:38;;;;;;;5.40;3.20;;;;;;;27.56;42.64;100291.54;112985;1217;60305;-87
2021/08/29 00:18:21;;;;;;;6.60;3.70;;;;;;;27.56;42.89;100282.52;112989;1211;64672;-90
2021/08/29 00:21:10;;;;;;;4.60;3.00;;;;;;;27.55;42.82;100278.23;112960;1218;65764;-84
2021/08/29 00:23:38;;;;;;;5.00;3.20;;;;;;;27.56;42.73;100263.59;112974;1216;60947;-85
2021/08/29 00:26:10;;;;;;;6.00;3.50;;;;;;;27.55;43.00;100250.43;112888;1214;60975;-84
2021/08/29 00:28:55;;;;;;;;;;;;;;;;;;;;;
2021/08/29 00:31:41;;;;;;;5.80;3.40;;;;;;;27.55;43.02;100234.77;112873;1219;65798;-84
2021/08/29 00:34:07;;;;;;;5.90;3.20;;;;;;;27.55;42.93;100229.68;112877;1218;61041;-85
2021/08/29 00:36:33;;;;;;;6.30;3.30;;;;;;;27.54;42.83;100221.23;112810;1216;61050;-85
2021/08/29 00:39:08;;;;;;;5.70;3.50;;;;;;;27.54;42.95;100219.96;112695;1219;60996;-85
2021/08/29 00:41:33;;;;;;;5.20;3.30;;;;;;;27.54;42.87;100215.85;112718;1216;65745;-83
2021/08/29 00:44:02;;;;;;;5.90;3.30;;;;;;;27.55;42.91;100218.50;112952;1217;60909;-88
2021/08/29 00:46:34;;;;;;;4.90;3.00;;;;;;;27.54;42.77;100214.03;112879;1211;61536;-87
2021/08/29 00:49:08;;;;;;;6.50;3.80;;;;;;;27.54;43.13;100196.86;112962;1216;62675;-90
2021/08/29 00:51:34;;;;;;;5.20;3.00;;;;;;;27.54;42.99;100186.71;112992;1211;66838;-84
2021/08/29 00:54:21;;;;;;;6.10;3.50;;;;;;;27.54;43.11;100183.84;112991;1211;60945;-87
2021/08/29 00:57:03;;;;;;;6.50;3.30;;;;;;;27.53;43.12;100177.98;113035;1217;60973;-85
2021/08/29 00:59:38;;;;;;;5.40;3.40;;;;;;;27.54;43.00;100171.43;112889;1216;62908;-86
2021/08/29 01:02:28;;;;;;;5.30;3.40;;;;;;;27.53;43.01;100168.42;112965;1211;66845;-83
2021/08/29 01:05:00;;;;;;;6.00;3.40;;;;;;;27.53;43.00;100169.74;112849;1220;60965;-85
2021/08/29 01:07:46;;;;;;;4.90;3.00;;;;;;;27.52;43.09;100166.90;112766;1216;61064;-85
2021/08/29 01:11:07;;;;;;;5.90;3.70;;;;;;;27.52;43.13;100160.40;112845;1216;64919;-84
2021/08/29 01:13:45;;;;;;;6.10;3.40;;;;;;;27.51;43.16;100158.15;112831;1213;65229;-86
2021/08/29 01:16:22;;;;;;;6.30;3.50;;;;;;;27.51;43.40;100160.15;112243;1222;61152;-87
2021/08/29 01:18:50;;;;;;;6.10;3.40;;;;;;;27.51;43.19;100162.16;112613;1220;61001;-86
2021/08/29 01:21:29;;;;;;;5.90;3.50;;;;;;;27.51;43.20;100166.15;112845;1215;63722;-87
2021/08/29 01:24:30;;;;;;;5.00;3.10;;;;;;;27.51;43.20;100163.27;112761;1220;66760;-84
2021/08/29 01:27:17;;;;;;;6.10;3.40;;;;;;;27.51;43.18;100164.38;112764;1219;61146;-90
2021/08/29 01:29:59;;;;;;;;;;;;;;;;;;;;;
2021/08/29 01:32:30;;;;;;;5.80;3.30;;;;;;;27.50;43.22;100164.59;112835;1214;64938;-88
2021/08/29 01:35:09;;;;;;;5.60;3.00;;;;;;;27.50;43.31;100165.50;112770;1218;65782;-87
2021/08/29 01:37:52;;;;;;;5.00;3.20;;;;;;;27.50;43.35;100165.18;112743;1213;61030;-92
2021/08/29 01:40:24;;;;;;;5.80;3.20;;;;;;;27.50;43.32;100161.23;112769;1219;61233;-84
2021/08/29 01:42:54;;;;;;;4.60;3.20;;;;;;;27.49;43.30;100155.64;112899;1217;64827;-85
2021/08/29 01:45:27;;;;;;;5.00;3.00;;;;;;;27.49;43.33;100152.08;112985;1218;66660;-86
2021/08/29 01:48:10;;;;;;;5.40;3.20;;;;;;;27.49;43.19;100148.33;112965;1218;60985;-88
2021/08/29 01:50:56;;;;;;;4.80;3.10;;;;;;;27.49;43.41;100147.39;112955;1214;61001;-87
2021/08/29 01:53:23;;;;;;;5.30;3.30;;;;;;;27.48;43.44;100155.57;112949;1219;63396;-84
2021/08/29 01:56:08;;;;;;;5.60;3.60;;;;;;;27.49;43.43;100159.16;112980;1216;65699;-85
2021/08/29 01:58:46;;;;;;;6.40;3.30;;;;;;;27.48;43.47;100162.85;113014;1220;61024;-80
2021/08/29 02:01:15;;;;;;;5.80;3.40;;;;;;;27.48;43.46;100163.19;112997;1215;60918;-83
2021/08/29 02:04:10;;;;;;;5.40;3.00;;;;;;;27.48;43.41;100159.06;113008;1217;62735;-82
2021/08/29 02:07:01;;;;;;;4.70;3.10;;;;;;;27.48;43.49;100153.84;112950;1216;65792;-85
2021/08/29 02:09:42;;;;;;;5.20;3.20;;;;;;;27.47;43.57;100161.99;113015;1217;60974;-87
2021/08/29 02:12:16;;;;;;;4.80;3.10;;;;;;;27.48;43.47;100164.89;112947;1224;60968;-85
2021/08/29 02:15:09;;;;;;;5.10;3.20;;;;;;;27.48;43.58;100170.48;112981;1217;63654;-86
2021/08/29 02:17:47;;;;;;;5.10;3.30;;;;;;;27.47;43.53;100168.55;112704;1215;65858;-84
2021/08/29 02:20:17;;;;;;;6.20;3.30;;;;;;;27.48;43.50;100169.23;112504;1222;61030;-85
2021/08/29 02:22:44;;;;;;;5.50;3.20;;;;;;;27.47;43.54;100171.80;112592;1223;60977;-87
2021/08/29 02:25:15;;;;;;;5.70;3.10;;;;;;;27.47;43.75;100172.52;112535;1219;61146;-87
2021/08/29 02:27:53;;;;;;;5.70;3.20;;;;;;;27.47;43.53;100173.09;112590;1219;65629;-86
2021/08/29 02:30:45;;;;;;;4.90;3.10;;;;;;;27.46;43.48;100174.85;112133;1217;60983;-86
2021/08/29 02:33:43;;;;;;;6.30;3.40;;;;;;;27.45;43.54;100181.21;111827;1227;59968;-86
2021/08/29 02:36:16;;;;;;;4.60;2.90;;;;;;;27.46;43.74;100181.89;111872;1229;64791;-85
2021/08/29 02:38:46;;;;;;;4.70;2.90;;;;;;;27.46;43.53;100178.47;111901;1228;66914;-88
2021/08/29 02:41:52;;;;;;;4.90;3.10;;;;;;;27.46;43.70;100176.77;111803;1227;61048;-87
2021/08/29 02:44:26;;;;;;;4.70;3.00;;;;;;;27.45;43.63;100167.52;111946;1229;60992;-88
2021/08/29 02:47:19;;;;;;;5.40;2.70;;;;;;;27.45;43.71;100172.39;111833;1227;64983;-90
2021/08/29 02:50:06;;;;;;;4.90;3.00;;;;;;;27.45;43.53;100168.45;111897;1227;66738;-86
2021/08/29 02:52:55;;;;;;;5.50;2.90;;;;;;;27.44;43.50;100163.63;111934;1227;61036;-89
2021/08/29 02:55:41;;;;;;;4.70;2.70;;;;;;;27.44;43.60;100165.23;111974;1225;61005;-87
2021/08/29 02:58:07;;;;;;;4.50;2.80;;;;;;;27.44;43.56;100166.88;112116;1225;63332;-88
2021/08/29 03:01:04;;;;;;;4.30;3.20;;;;;;;27.44;43.45;100168.00;112130;1224;66816;-84
2021/08/29 03:03:48;;;;;;;4.60;3.00;;;;;;;27.44;43.53;100164.16;112072;1217;60968;-80
2021/08/29 03:06:28;;;;;;;3.90;2.80;;;;;;;27.43;43.51;100158.82;112042;1226;61050;-87
2021/08/29 03:09:22;;;;;;;4.50;2.80;;;;;;;27.43;43.62;100155.39;112402;1225;72465;-86
2021/08/29 03:12:11;;;;;;;5.20;3.00;;;;;;;27.43;43.72;100155.05;112838;1215;66788;-87
2021/08/29 03:14:39;;;;;;;;;;;;;;;27.42;43.86;100155.12;112998;1216;61101;-87
2021/08/29 03:17:23;;;;;;;5.80;3.00;;;;;;;27.40;43.69;100155.33;112957;1216;61001;-91
2021/08/29 03:20:15;;;;;;;5.90;2.70;;;;;;;27.41;43.68;100154.20;113033;1217;63519;-86
2021/08/29 03:22:55;;;;;;;4.70;2.80;;;;;;;27.41;43.87;100154.75;112961;1219;74356;-82
2021/08/29 03:25:41;;;;;;;5.70;2.90;;;;;;;27.40;43.85;100148.48;112961;1220;61072;-87
2021/08/29 03:28:13;;;;;;;4.20;2.60;;;;;;;27.41;43.84;100148.27;112996;1218;61140;-87
2021/08/29 03:30:53;;;;;;;5.60;3.10;;;;;;;27.41;43.81;100146.99;112963;1217;63840;-88
2021/08/29 03:33:40;;;;;;;5.00;2.80;;;;;;;27.41;43.85;100147.20;112885;1216;65966;-85
2021/08/29 03:36:21;;;;;;;6.20;2.90;;;;;;;27.41;43.71;100147.03;112952;1211;61102;-84
2021/08/29 03:38:59;;;;;;;5.00;3.00;;;;;;;27.41;43.69;100147.36;112981;1218;60966;-89
2021/08/29 03:41:39;;;;;;;4.80;2.80;;;;;;;27.41;43.73;100144.11;112955;1217;63105;-89
2021/08/29 03:44:17;;;;;;;5.30;2.70;;;;;;;27.41;43.78;100140.48;112968;1217;67145;-86
2021/08/29 03:46:46;;;;;;;5.00;3.10;;;;;;;27.40;43.79;100136.55;112995;1211;60951;-85
2021/08/29 03:49:25;;;;;;;5.60;3.00;;;;;;;27.41;43.80;100137.22;112974;1212;60928;-90
2021/08/29 03:52:16;;;;;;;4.90;2.80;;;;;;;27.40;43.72;100137.09;112957;1212;64062;-89
2021/08/29 03:54:51;;;;;;;5.50;2.90;;;;;;;27.40;43.70;100138.92;112954;1216;66893;-84
2021/08/29 03:57:50;;;;;;;;;;;;;;;;;;;;;
2021/08/29 04:00:37;;;;;;;5.40;3.00;;;;;;;27.40;43.76;100138.17;113008;1218;60992;-84
2021/08/29 04:03:13;;;;;;;5.20;3.10;;;;;;;27.40;43.70;100136.65;112947;1216;64751;-85
2021/08/29 04:05:42;;;;;;;5.00;3.00;;;;;;;27.40;43.70;100140.42;112809;1222;65864;-83
2021/08/29 04:08:33;;;;;;;4.90;3.00;;;;;;;27.40;43.92;100138.42;113029;1214;60962;-87
2021/08/29 04:11:00;;;;;;;5.80;3.30;;;;;;;27.40;43.84;100138.05;113028;1218;60965;-83
2021/08/29 04:13:38;;;;;;;4.70;2.90;;;;;;;27.40;43.79;100136.75;112991;1216;71814;-86
2021/08/29 04:16:11;;;;;;;5.10;2.90;;;;;;;27.40;43.67;100134.39;112993;1218;66844;-88
2021/08/29 04:18:57;;;;;;;5.10;3.00;;;;;;;27.40;43.75;100133.54;112983;1219;60944;-86
2021/08/29 04:21:32;;;;;;;4.80;3.20;;;;;;;27.40;43.79;100132.63;113048;1213;60954;-87
2021/08/29 04:24:20;;;;;;;5.40;3.10;;;;;;;27.39;43.78;100130.15;112980;1218;62454;-85
2021/08/29 04:26:49;;;;;;;5.50;3.00;;;;;;;27.40;43.88;100125.77;112925;1213;74520;-82
2021/08/29 04:29:44;;;;;;;5.60;3.20;;;;;;;27.39;43.79;100125.11;113043;1217;61076;-86
2021/08/29 04:32:19;;;;;;;5.10;3.30;;;;;;;27.40;43.69;100123.11;112991;1218;61119;-83
2021/08/29 04:34:51;;;;;;;4.60;3.10;;;;;;;27.40;43.70;100122.73;112975;1212;65247;-88
2021/08/29 04:37:56;;;;;;;5.60;3.10;;;;;;;27.39;43.86;100129.45;112987;1213;67005;-88
2021/08/29 04:40:32;;;;;;;5.50;3.00;;;;;;;27.39;43.80;100128.54;113056;1217;61015;-87
2021/08/29 04:43:04;;;;;;;5.10;3.00;;;;;;;27.40;43.79;100124.88;112988;1212;61056;-81
2021/08/29 04:45:41;;;;;;;4.60;3.00;;;;;;;27.40;43.83;100127.41;112978;1213;63105;-84
2021/08/29 04:48:44;;;;;;;5.90;3.20;;;;;;;27.39;43.80;100130.92;113037;1217;65962;-86
2021/08/29 04:51:10;;;;;;;4.90;3.20;;;;;;;27.39;43.79;100132.72;112953;1210;61670;-84
2021/08/29 04:54:12;;;;;;;4.40;2.80;;;;;;;27.39;43.92;100131.60;112981;1212;61028;-86
2021/08/29 04:56:58;;;;;;;5.70;3.40;;;;;;;27.40;43.80;100133.23;113065;1217;63717;-85
2021/08/29 04:59:52;;;;;;;4.90;3.30;;;;;;;27.40;43.97;100135.34;113001;1218;65753;-83
2021/08/29 05:02:21;;;;;;;4.80;3.20;;;;;;;27.40;43.79;100139.50;112973;1218;60926;-85
2021/08/29 05:04:46;;;;;;;;;;;;;;;27.40;43.81;100142.72;113001;1214;61473;-83
2021/08/29 05:07:25;;;;;;;5.20;3.10;;;;;;;27.39;43.71;100142.73;112999;1213;61061;-87
2021/08/29 05:09:53;;;;;;;4.90;3.30;;;;;;;27.39;43.76;100145.23;113013;1216;67023;-87
2021/08/29 05:12:40;;;;;;;5.10;3.00;;;;;;;27.39;43.73;100144.33;113060;1212;60784;-87
2021/08/29 05:15:37;;;;;;;;;;;;;;;;;;;;;
2021/08/29 05:18:18;;;;;;;6.10;3.10;;;;;;;27.38;43.70;100144.74;113004;1215;64837;-85
2021/08/29 05:21:00;;;;;;;4.50;3.10;;;;;;;27.39;43.79;100142.90;113066;1217;66595;-85
2021/08/29 05:23:41;;;;;;;6.00;3.60;;;;;;;27.39;43.81;100143.27;113007;1216;60962;-84
2021/08/29 05:26:22;;;;;;;5.30;3.30;;;;;;;27.39;43.89;100139.63;112938;1216;59163;-83
2021/08/29 05:28:48;;;;;;;5.80;3.40;;;;;;;27.39;43.83;100138.91;112954;1215;64699;-90
2021/08/29 05:31:25;;;;;;;3.80;2.80;;;;;;;27.39;43.90;100136.55;112937;1216;61068;-87
2021/08/29 05:33:54;;;;;;;6.10;3.40;;;;;;;27.39;43.77;100138.35;112988;1212;60970;-83
2021/08/29 05:36:38;;;;;;;;;;;;;;;;;;;;;
2021/08/29 05:39:20;;;;;;;4.70;3.20;;;;;;;27.37;43.81;100131.29;113037;1217;65151;-84
2021/08/29 05:41:55;;;;;;;4.80;3.40;;;;;;;27.38;43.74;100124.14;112966;1217;74697;-85
2021/08/29 05:44:44;;;;;;;;;;;;;;;;;;;;;
2021/08/29 05:47:18;;;;;;;5.10;3.30;;;;;;;27.38;43.96;100118.43;112921;1211;61034;-83
2021/08/29 05:49:53;;;;;;;6.50;3.60;;;;;;;27.38;43.83;100116.97;112917;1214;63915;-84
2021/08/29 05:52:23;;;;;;;5.90;3.30;;;;;;;27.38;44.02;100108.30;112876;1212;65779;-80
2021/08/29 05:55:09;;;;;;;5.90;3.40;;;;;;;27.38;43.92;100106.09;112926;1216;61114;-82
2021/08/29 05:57:37;;;;;;;4.80;3.30;;;;;;;27.38;43.88;100104.30;112915;1216;60951;-87
2021/08/29 06:00:23;;;;;;;5.30;3.40;;;;;;;27.38;43.86;100097.09;112940;1219;63822;-83
2021/08/29 06:03:16;;;;;;;6.10;3.80;;;;;;;27.38;44.03;100091.13;112861;1214;65766;-88
2021/08/29 06:06:12;;;;;;;4.80;3.20;;;;;;;27.38;44.08;100090.58;112932;1219;60996;-85
2021/08/29 06:08:57;;;;;;;5.50;3.50;;;;;;;27.38;44.08;100091.66;112943;1218;61004;-86
2021/08/29 06:11:29;;;;;;;5.60;3.20;;;;;;;27.38;44.03;100088.06;112926;1218;62967;-86
2021/08/29 06:14:04;;;;;;;6.40;3.30;;;;;;;27.39;44.03;100083.09;112888;1218;65916;-88
2021/08/29 06:16:39;;;;;;;4.80;3.30;;;;;;;27.38;44.00;100082.55;112875;1218;60968;-86
2021/08/29 06:19:14;;;;;;;7.10;3.40;;;;;;;27.39;43.82;100078.21;112957;1214;61092;-88
2021/08/29 06:22:00;;;;;;;5.80;3.40;;;;;;;27.39;43.91;100072.94;112973;1216;65023;-88
2021/08/29 06:24:46;;;;;;;5.00;3.20;;;;;;;27.40;44.01;100074.48;112977;1211;65851;-86
2021/08/29 06:27:25;;;;;;;6.20;3.50;;;;;;;27.40;44.08;100077.00;112981;1218;60932;-83
2021/08/29 06:29:57;;;;;;;;;;;;;;;27.40;43.98;100087.29;113059;1217;61216;-86
2021/08/29 06:32:31;;;;;;;5.20;3.30;;;;;;;27.38;44.03;100090.88;113042;1217;64783;-89
2021/08/29 06:35:11;;;;;;;5.50;3.40;;;;;;;27.39;43.87;100100.20;112953;1219;66789;-83
2021/08/29 06:38:00;;;;;;;5.20;3.30;;;;;;;27.39;44.02;100097.84;112996;1216;60947;-86
2021/08/29 06:40:49;;;;;;;5.30;3.40;;;;;;;27.39;44.04;100097.45;112963;1218;60948;-86
2021/08/29 06:43:27;;;;;;;5.10;3.10;;;;;;;27.39;44.09;100097.26;112974;1211;64884;-88
2021/08/29 06:45:53;;;;;;;5.00;3.20;;;;;;;27.40;44.14;100095.98;113048;1217;65861;-86
2021/08/29 06:48:21;;;;;;;5.00;3.30;;;;;;;27.40;44.07;100099.23;113054;1213;60989;-87
2021/08/29 06:51:28;;;;;;;5.50;3.60;;;;;;;27.40;44.04;100100.98;113004;1211;61014;-85
2021/08/29 06:54:17;;;;;;;4.40;3.00;;;;;;;27.41;43.95;100101.66;113040;1217;64296;-84
2021/08/29 06:56:48;;;;;;;5.10;3.40;;;;;;;27.41;44.01;100095.96;113062;1217;65834;-91
2021/08/29 06:59:37;;;;;;;5.50;3.10;;;;;;;27.42;44.11;100095.55;112946;1212;60998;-87
2021/08/29 07:02:12;;;;;;;4.60;3.20;;;;;;;27.42;44.08;100103.83;113062;1209;61025;-84
2021/08/29 07:05:04;;;;;;;5.30;3.30;;;;;;;27.42;44.20;100112.66;113027;1211;62516;-87
2021/08/29 07:07:36;;;;;;;5.90;3.20;;;;;;;27.43;44.15;100117.28;113040;1217;65518;-87
2021/08/29 07:10:03;;;;;;;5.40;3.50;;;;;;;27.44;44.13;100113.92;113039;1217;60995;-84
2021/08/29 07:12:43;;;;;;;5.30;3.60;;;;;;;27.45;44.39;100112.44;112981;1210;62252;-87
2021/08/29 07:15:32;;;;;;;6.00;3.40;;;;;;;27.44;44.24;100108.67;112937;1219;63360;-83
2021/08/29 07:18:08;;;;;;;5.10;3.60;;;;;;;27.44;44.23;100104.67;112979;1218;66760;-92
2021/08/29 07:21:00;;;;;;;;;;;;;;;;;;;;;
2021/08/29 07:23:29;;;;;;;5.60;3.60;;;;;;;27.45;44.19;100100.89;112980;1213;61110;-84
2021/08/29 07:26:09;;;;;;;5.20;3.50;;;;;;;27.45;44.20;100104.23;112904;1211;63770;-89
2021/08/29 07:28:48;;;;;;;5.00;3.30;;;;;;;27.45;44.21;100103.70;112944;1219;65597;-88
2021/08/29 07:31:24;;;;;;;5.30;3.30;;;;;;;27.45;44.20;100105.53;112950;1218;60947;-86
2021/08/29 07:34:10;;;;;;;4.60;3.10;;;;;;;27.45;44.26;100105.49;112951;1219;61096;-88
2021/08/29 07:36:56;;;;;;;8.40;3.80;;;;;;;27.45;44.15;100109.11;112989;1211;64744;-84
2021/08/29 07:39:25;;;;;;;5.80;3.70;;;;;;;27.44;44.35;100111.05;112989;1217;65863;-87
2021/08/29 07:41:54;;;;;;;5.20;3.70;;;;;;;27.45;44.17;100111.46;112963;1218;60977;-89
2021/08/29 07:44:44;;;;;;;;;;;;;;;;;;;;;
2021/08/29 07:47:13;;;;;;;5.60;3.60;;;;;;;27.45;44.19;100108.20;112965;1214;63874;-85
2021/08/29 07:49:49;;;;;;;5.10;3.40;;;;;;;27.45;44.16;100108.95;112930;1218;66693;-81
2021/08/29 07:52:34;;;;;;;6.00;3.50;;;;;;;27.45;44.09;100113.69;112960;1212;60990;-84
2021/08/29 07:55:12;;;;;;;5.50;3.70;;;;;;;27.44;44.30;100116.43;112986;1217;61541;-88
2021/08/29 07:57:52;;;;;;;5.20;3.40;;;;;;;27.45;44.35;100121.45;112942;1212;65278;-82
2021/08/29 08:00:58;;;;;;;4.50;3.80;;;;;;;27.45;44.29;100122.39;112569;1221;64780;-86
2021/08/29 08:03:33;;;;;;;4.90;3.60;;;;;;;27.44;44.32;100123.89;112616;1221;60965;-88
2021/08/29 08:06:03;;;;;;;5.00;3.50;;;;;;;27.44;44.39;100120.23;112556;1222;61058;-88
2021/08/29 08:08:59;;;;;;;5.10;3.30;;;;;;;27.44;44.31;100126.20;112545;1222;71955;-84
2021/08/29 08:11:45;;;;;;;5.60;3.60;;;;;;;27.43;44.33;100142.21;112537;1222;66704;-89
2021/08/29 08:14:18;;;;;;;5.00;3.70;;;;;;;27.43;44.59;100171.86;112607;1213;60993;-85
2021/08/29 08:17:13;;;;;;;5.10;3.70;;;;;;;27.43;44.46;100190.13;112028;1225;61009;-87
2021/08/29 08:19:49;;;;;;;5.30;3.60;;;;;;;27.42;44.43;100205.34;112086;1225;64018;-83
2021/08/29 08:22:24;;;;;;;5.50;3.80;;;;;;;27.42;44.46;100210.23;111975;1225;67016;-87
2021/08/29 08:25:17;;;;;;;4.80;3.60;;;;;;;27.42;44.38;100197.98;112100;1225;60965;-84
2021/08/29 08:27:43;;;;;;;6.30;3.60;;;;;;;27.41;44.38;100148.55;112098;1225;61085;-87
2021/08/29 08:30:20;;;;;;;5.00;3.80;;;;;;;27.41;44.49;100138.45;111988;1225;61027;-86
2021/08/29 08:32:56;;;;;;;6.30;3.70;;;;;;;27.41;44.47;100125.10;111969;1225;66941;-88
2021/08/29 08:35:42;;;;;;;5.70;3.80;;;;;;;27.41;44.42;100101.79;111961;1225;61334;-86
2021/08/29 08:38:15;;;;;;;5.20;3.90;;;;;;;27.40;44.45;100092.81;111981;1222;61304;-86
2021/08/29 08:41:01;;;;;;;5.90;4.00;;;;;;;27.41;44.49;100098.02;112607;1221;63227;-89
2021/08/29 08:43:30;;;;;;;6.00;4.10;;;;;;;27.40;44.49;100100.06;112529;1222;67567;-85
2021/08/29 08:46:02;;;;;;;5.70;3.70;;;;;;;27.40;44.40;100092.10;112576;1222;60972;-81
2021/08/29 08:48:41;;;;;;;5.10;3.90;;;;;;;27.41;44.42;100077.48;112543;1222;61064;-88
2021/08/29 08:51:08;;;;;;;6.60;4.10;;;;;;;27.40;44.41;100065.92;112559;1222;64110;-85
2021/08/29 08:53:46;;;;;;;;;;;;;;;27.40;44.64;100063.91;112575;1221;67130;-86
2021/08/29 08:56:37;;;;;;;5.20;3.60;;;;;;;27.38;44.52;100067.61;112992;1217;60960;-88
2021/08/29 08:59:17;;;;;;;4.90;3.50;;;;;;;27.39;44.59;100070.25;112982;1218;61037;-88
2021/08/29 09:02:08;;;;;;;4.90;3.90;;;;;;;27.39;44.54;100078.00;112968;1211;63057;-88
2021/08/29 09:04:41;;;;;;;5.90;3.80;;;;;;;27.39;44.68;100083.56;112937;1210;66975;-89
2021/08/29 09:07:07;;;;;;;6.10;3.80;;;;;;;27.40;44.82;100082.94;112892;1213;62133;-84
2021/08/29 09:09:39;;;;;;;4.70;3.40;;;;;;;27.41;44.88;100079.77;112982;1210;60959;-83
2021/08/29 09:12:28;;;;;;;;;;;;;;;;;;;;;
2021/08/29 09:15:15;;;;;;;5.80;3.80;;;;;;;27.41;44.95;100080.95;113004;1217;65745;-88
2021/08/29 09:17:47;;;;;;;5.40;3.40;;;;;;;27.42;44.84;100076.05;113038;1211;60970;-85
2021/08/29 09:20:51;;;;;;;5.90;3.70;;;;;;;27.43;44.99;100078.66;112884;1213;60994;-84
2021/08/29 09:23:44;;;;;;;5.90;4.00;;;;;;;27.43;45.11;100076.45;112868;1213;64746;-84
2021/08/29 09:26:41;;;;;;;6.10;3.90;;;;;;;27.44;44.95;100078.39;112837;1214;64649;-80
2021/08/29 09:29:38;;;;;;;4.90;3.60;;;;;;;27.45;44.95;100074.48;112875;1211;61215;-83
2021/08/29 09:32:09;;;;;;;6.90;3.90;;;;;;;27.46;45.22;100073.27;112864;1213;61410;-83
2021/08/29 09:35:05;;;;;;;5.90;4.00;;;;;;;27.47;44.98;100073.73;112746;1214;62787;-91
2021/08/29 09:37:50;;;;;;;;;;;;;;;;;;;;;
2021/08/29 09:40:35;;;;;;;6.30;4.00;;;;;;;27.48;45.15;100073.05;112954;1214;61101;-87
2021/08/29 09:43:17;;;;;;;5.30;3.90;;;;;;;27.48;45.21;100071.64;112949;1214;60968;-89
2021/08/29 09:46:12;;;;;;;5.70;3.90;;;;;;;27.48;45.33;100067.76;112929;1211;62626;-85
2021/08/29 09:48:47;;;;;;;5.90;3.80;;;;;;;27.48;45.21;100066.70;112887;1213;65773;-85
2021/08/29 09:51:24;;;;;;;5.20;3.70;;;;;;;27.48;45.30;100064.73;112981;1217;61012;-88
2021/08/29 09:54:10;;;;;;;6.10;3.70;;;;;;;27.49;45.02;100065.89;113012;1210;60988;-86
2021/08/29 09:56:56;;;;;;;5.10;3.70;;;;;;;27.48;45.09;100059.06;112986;1217;64547;-88
2021/08/29 09:59:47;;;;;;;6.30;3.80;;;;;;;27.48;45.16;100061.78;112969;1210;67259;-85
2021/08/29 10:02:23;;;;;;;6.70;3.90;;;;;;;27.49;45.21;100066.55;112979;1217;60914;-91
2021/08/29 10:05:21;;;;;;;5.60;3.90;;;;;;;27.50;45.25;100063.95;112985;1217;60993;-85
2021/08/29 10:08:21;;;;;;;5.10;3.80;;;;;;;27.51;45.24;100064.63;112963;1217;73665;-87
2021/08/29 10:10:49;;;;;;;7.00;4.10;;;;;;;27.50;45.30;100066.29;112944;1213;66197;-85
2021/08/29 10:13:28;;;;;;;5.80;3.80;;;;;;;27.50;45.49;100071.34;112992;1217;60891;-92
2021/08/29 10:16:29;;;;;;;;;;;;;;;;;;;;;
2021/08/29 10:19:07;;;;;;;6.30;3.80;;;;;;;27.51;45.34;100078.66;112981;1217;63436;-85
2021/08/29 10:21:36;;;;;;;7.10;4.20;;;;;;;27.51;45.53;100081.40;112969;1210;65736;-86
2021/08/29 10:24:31;;;;;;;5.00;3.70;;;;;;;27.51;45.50;100078.87;113002;1210;61038;-84
2021/08/29 10:27:02;;;;;;;6.50;4.40;;;;;;;27.51;45.37;100074.73;113038;1217;60898;-87
2021/08/29 10:29:49;;;;;;;6.30;4.00;;;;;;;27.51;45.46;100078.86;112948;1213;64646;-84
2021/08/29 10:32:45;;;;;;;6.10;3.60;;;;;;;27.51;45.45;100080.89;112969;1210;65707;-84
2021/08/29 10:35:17;;;;;;;5.50;3.70;;;;;;;27.51;45.44;100076.71;112940;1212;61107;-80
2021/08/29 10:38:20;;;;;;;5.80;4.20;;;;;;;27.51;45.66;100075.10;112967;1210;61185;-86
2021/08/29 10:41:03;;;;;;;6.50;4.20;;;;;;;27.51;45.60;100074.75;112959;1212;63856;-85
2021/08/29 10:43:39;;;;;;;5.40;4.00;;;;;;;27.51;45.49;100077.44;112955;1218;65135;-87
2021/08/29 10:46:25;;;;;;;6.20;4.30;;;;;;;27.52;45.56;100077.51;112973;1217;60962;-92
2021/08/29 10:48:51;;;;;;;5.50;3.80;;;;;;;27.52;45.56;100075.00;112879;1210;60991;-85
2021/08/29 10:51:27;;;;;;;4.90;4.00;;;;;;;27.51;45.49;100071.23;112815;1217;63786;-82
2021/08/29 10:53:59;;;;;;;6.50;4.00;;;;;;;27.52;45.62;100074.05;112793;1210;65612;-89
2021/08/29 10:56:45;;;;;;;5.90;4.00;;;;;;;27.52;45.48;100076.96;112952;1217;61078;-87
2021/08/29 10:59:43;;;;;;;5.40;4.20;;;;;;;27.51;45.61;100078.45;112815;1210;61002;-86
2021/08/29 11:02:25;;;;;;;6.20;4.30;;;;;;;27.51;45.64;100081.73;112664;1213;64081;-86
2021/08/29 11:05:12;;;;;;;5.80;4.30;;;;;;;27.51;45.71;100080.49;112563;1215;65740;-87
2021/08/29 11:07:52;;;;;;;6.20;4.20;;;;;;;27.51;45.69;100085.88;112600;1213;60961;-86
2021/08/29 11:10:57;;;;;;;5.60;4.30;;;;;;;27.51;45.87;100089.66;112692;1213;61143;-84
2021/08/29 11:13:41;;;;;;;6.20;4.30;;;;;;;27.51;45.89;100091.73;112080;1219;63665;-89
2021/08/29 11:16:27;;;;;;;5.80;4.10;;;;;;;27.50;45.88;100088.93;112140;1219;65863;-85
2021/08/29 11:19:19;;;;;;;6.20;4.20;;;;;;;27.49;45.77;100087.36;112114;1225;60980;-88
2021/08/29 11:22:08;;;;;;;6.70;4.30;;;;;;;27.49;45.82;100084.44;112120;1219;61001;-90
2021/08/29 11:25:19;;;;;;;5.30;3.90;;;;;;;27.48;45.84;100085.09;111744;1222;64324;-87
2021/08/29 11:28:28;;;;;;;5.90;4.30;;;;;;;27.48;45.74;100081.52;111369;1222;64837;-83
2021/08/29 11:31:00;;;;;;;5.50;4.20;;;;;;;27.48;45.99;100086.45;111395;1221;60981;-86
2021/08/29 11:33:46;;;;;;;5.50;4.00;;;;;;;27.49;46.00;100086.35;111451;1222;61127;-88
2021/08/29 11:36:28;;;;;;;7.10;4.30;;;;;;;27.48;45.97;100082.21;111556;1222;61366;-84
2021/08/29 11:39:16;;;;;;;7.80;4.30;;;;;;;27.49;45.91;100086.00;111658;1228;65243;-84
2021/08/29 11:42:07;;;;;;;6.40;4.80;;;;;;;27.49;45.96;100082.92;111792;1222;61079;-87
2021/08/29 11:44:43;;;;;;;6.10;4.40;;;;;;;27.48;46.02;100079.54;111737;1221;61082;-88
2021/08/29 11:47:23;;;;;;;;;;;;;;;27.49;45.98;100081.63;111872;1222;64579;-87
2021/08/29 11:50:14;;;;;;;6.50;4.50;;;;;;;27.47;46.12;100082.55;111759;1228;66610;-86
2021/08/29 11:52:52;;;;;;;6.90;4.70;;;;;;;27.47;45.89;100083.68;112133;1219;62079;-83
2021/08/29 11:55:27;;;;;;;5.80;4.50;;;;;;;27.47;45.82;100088.02;112106;1225;61002;-84
2021/08/29 11:58:20;;;;;;;6.80;4.40;;;;;;;27.47;46.04;100080.02;112329;1222;73102;-88
2021/08/29 12:01:27;;;;;;;5.20;4.10;;;;;;;27.46;45.92;100071.77;112071;1222;64508;-85
2021/08/29 12:04:17;;;;;;;5.40;4.00;;;;;;;27.47;46.03;100074.99;112616;1216;61152;-87
2021/08/29 12:07:07;;;;;;;5.70;4.10;;;;;;;27.47;46.17;100074.42;113037;1209;60970;-88
2021/08/29 12:09:47;;;;;;;5.10;4.00;;;;;;;27.48;46.22;100064.96;112867;1219;63631;-84
2021/08/29 12:13:00;;;;;;;7.70;4.60;;;;;;;27.48;45.85;100064.16;112942;1217;64461;-86
2021/08/29 12:15:36;;;;;;;5.30;4.10;;;;;;;27.49;45.91;100064.13;112997;1210;60955;-87
2021/08/29 12:18:06;;;;;;;5.50;4.20;;;;;;;27.49;46.20;100062.77;112970;1218;60973;-87
2021/08/29 12:20:41;;;;;;;5.20;4.10;;;;;;;27.50;46.07;100058.35;112918;1213;63790;-82
2021/08/29 12:23:37;;;;;;;5.80;4.10;;;;;;;27.50;45.95;100056.90;112939;1212;66943;-91
2021/08/29 12:26:22;;;;;;;;;;;;;;;;;;;;;
2021/08/29 12:29:08;;;;;;;6.50;4.10;;;;;;;27.51;46.13;100056.94;112936;1213;60913;-86
2021/08/29 12:31:53;;;;;;;5.70;4.00;;;;;;;27.52;45.97;100056.56;112969;1210;63681;-82
2021/08/29 12:35:00;;;;;;;7.00;4.70;;;;;;;27.52;45.97;100052.88;112945;1213;66659;-87
2021/08/29 12:37:46;;;;;;;5.50;4.10;;;;;;;27.52;46.15;100049.66;112603;1214;61003;-90
2021/08/29 12:40:23;;;;;;;6.00;4.20;;;;;;;27.52;46.13;100049.61;112150;1216;61054;-90
2021/08/29 12:42:59;;;;;;;5.60;3.90;;;;;;;27.53;45.98;100052.09;112151;1217;64807;-88
2021/08/29 12:45:43;;;;;;;5.40;4.00;;;;;;;27.53;46.08;100051.31;112345;1216;65617;-83